Time;durP1;ratioP1;P1;durP2;ratioP2;P2;SDS_P1;SDS_P2;PMS_P1;PMS_P2;Temp;Humidity;BMP_temperature;BMP_pressure;BME280_temperature;BME280_humidity;BME280_pressure;Samples;Min_cycle;Max_cycle;Signal;HPM_P1;HPM_P2
2022/05/02 00:00:45;;;;;;;4.32;3.53;;;;;;;7.91;100.00;102310.50;5051118;28;20033;-27
2022/05/02 00:03:20;;;;;;;5.18;3.60;;;;;;;7.88;100.00;102311.84;5041909;28;20075;-27
2022/05/02 00:05:48;;;;;;;5.68;4.25;;;;;;;7.86;100.00;102305.69;5052226;28;20551;-27
2022/05/02 00:08:16;;;;;;;5.28;3.42;;;;;;;7.84;100.00;102312.56;5058840;28;20478;-27
2022/05/02 00:10:44;;;;;;;7.22;4.88;;;;;;;7.82;100.00;102306.41;5057930;28;20486;-29
2022/05/02 00:13:13;;;;;;;6.63;4.55;;;;;;;7.81;100.00;102301.94;5062107;28;20068;-29
2022/05/02 00:15:41;;;;;;;5.53;3.65;;;;;;;7.78;100.00;102297.75;5050770;28;20070;-27
2022/05/02 00:18:08;;;;;;;4.45;3.08;;;;;;;7.76;100.00;102302.72;5046748;28;20405;-27
2022/05/02 00:20:38;;;;;;;3.70;3.20;;;;;;;7.75;100.00;102301.00;5056184;28;20071;-27
2022/05/02 00:23:07;;;;;;;4.70;4.00;;;;;;;7.73;100.00;102294.00;5050895;28;20397;-28
2022/05/02 00:25:35;;;;;;;3.65;2.75;;;;;;;7.70;100.00;102295.34;5049636;28;20052;-28
2022/05/02 00:28:04;;;;;;;5.43;4.13;;;;;;;7.68;100.00;102296.66;5048865;28;20042;-27
2022/05/02 00:30:33;;;;;;;5.82;3.70;;;;;;;7.66;100.00;102294.13;5048967;28;20080;-28
2022/05/02 00:33:01;;;;;;;4.65;3.20;;;;;;;7.63;100.00;102286.28;5050029;28;20054;-27
2022/05/02 00:35:29;;;;;;;5.13;3.88;;;;;;;7.62;100.00;102290.16;5047248;28;20072;-28
2022/05/02 00:37:57;;;;;;;6.43;4.55;;;;;;;7.60;100.00;102286.78;5055008;28;20046;-27
2022/05/02 00:40:25;;;;;;;7.38;4.30;;;;;;;7.57;100.00;102284.50;5046239;28;20503;-28
2022/05/02 00:42:53;;;;;;;6.20;4.80;;;;;;;7.55;100.00;102284.75;5056117;28;20132;-28
2022/05/02 00:45:21;;;;;;;6.38;4.10;;;;;;;7.53;100.00;102278.59;5047051;28;20075;-28
2022/05/02 00:47:52;;;;;;;6.78;4.47;;;;;;;7.50;100.00;102281.84;5055107;28;20048;-28
2022/05/02 00:50:34;;;;;;;8.88;3.65;;;;;;;7.48;100.00;102281.25;5046848;28;20049;-28
2022/05/02 00:53:04;;;;;;;4.65;3.13;;;;;;;7.43;100.00;102283.91;5055158;28;20045;-27
2022/05/02 00:55:32;;;;;;;4.78;3.50;;;;;;;7.40;100.00;102283.53;5046957;28;20077;-28
2022/05/02 00:58:01;;;;;;;3.88;3.10;;;;;;;7.37;100.00;102284.06;5055588;28;20411;-27
2022/05/02 01:00:30;;;;;;;5.18;3.15;;;;;;;7.34;100.00;102278.97;5045991;28;20038;-27
2022/05/02 01:03:00;;;;;;;3.78;2.58;;;;;;;7.32;100.00;102275.59;5055355;28;20397;-27
2022/05/02 01:05:28;;;;;;;3.40;2.70;;;;;;;7.29;100.00;102278.84;5046644;28;20397;-27
2022/05/02 01:07:55;;;;;;;3.83;2.80;;;;;;;7.24;100.00;102274.88;5053419;28;20497;-28
2022/05/02 01:10:24;;;;;;;4.07;2.95;;;;;;;7.19;100.00;102274.75;5047264;28;20067;-28
2022/05/02 01:12:52;;;;;;;3.33;2.50;;;;;;;7.15;100.00;102272.72;5037721;28;20056;-27
2022/05/02 01:15:20;;;;;;;3.67;2.50;;;;;;;7.10;100.00;102273.44;5047304;28;20041;-27
2022/05/02 01:17:47;;;;;;;3.42;2.65;;;;;;;7.05;100.00;102273.31;5049795;28;20055;-28
2022/05/02 01:20:17;;;;;;;6.07;4.03;;;;;;;7.02;100.00;102276.56;5047016;28;20060;-28
2022/05/02 01:22:44;;;;;;;6.22;4.25;;;;;;;6.98;100.00;102268.97;5050420;28;20055;-28
2022/05/02 01:25:12;;;;;;;5.03;3.13;;;;;;;6.93;100.00;102266.91;5046242;28;20419;-27
2022/05/02 01:27:40;;;;;;;4.15;2.65;;;;;;;6.88;100.00;102273.19;5059238;28;20045;-29
2022/05/02 01:30:09;;;;;;;5.00;3.15;;;;;;;6.84;100.00;102274.75;5057661;28;20048;-28
2022/05/02 01:32:36;;;;;;;3.40;2.55;;;;;;;6.79;100.00;102266.31;5057851;28;20413;-28
2022/05/02 01:35:05;;;;;;;4.45;2.67;;;;;;;6.75;100.00;102267.88;5054791;28;20059;-28
2022/05/02 01:37:34;;;;;;;5.68;3.22;;;;;;;6.71;100.00;102266.66;5059390;28;20048;-28
2022/05/02 01:40:01;;;;;;;4.78;3.35;;;;;;;6.67;100.00;102256.28;5041179;28;20052;-28
2022/05/02 01:42:29;;;;;;;4.20;2.78;;;;;;;6.63;100.00;102266.16;5045153;28;20053;-27
2022/05/02 01:44:57;;;;;;;4.07;3.22;;;;;;;6.59;100.00;102264.97;5054554;28;20406;-27
2022/05/02 01:47:24;;;;;;;3.50;2.42;;;;;;;6.54;100.00;102260.97;5046003;28;20414;-29
2022/05/02 01:49:52;;;;;;;3.22;2.13;;;;;;;6.52;100.00;102265.91;5054101;28;20045;-28
2022/05/02 01:52:20;;;;;;;3.60;2.70;;;;;;;6.49;100.00;102260.81;5046209;28;20494;-28
2022/05/02 01:54:49;;;;;;;4.13;2.60;;;;;;;6.48;100.00;102261.06;5054597;28;20115;-30
2022/05/02 01:57:17;;;;;;;3.20;2.40;;;;;;;6.45;100.00;102258.75;5044819;28;20037;-31
2022/05/02 01:59:45;;;;;;;4.57;2.85;;;;;;;6.41;100.00;102260.31;5054424;28;20066;-28
2022/05/02 02:02:13;;;;;;;3.17;2.50;;;;;;;6.37;100.00;102257.19;5045724;28;20056;-29
2022/05/02 02:07:26;;;;;;;5.10;3.50;;;;;;;6.29;100.00;102249.19;5041090;28;20053;-28
2022/05/02 02:09:55;;;;;;;4.13;2.80;;;;;;;6.28;100.00;102246.66;5053605;28;20044;-29
2022/05/02 02:12:23;;;;;;;4.07;2.78;;;;;;;6.24;100.00;102251.84;5057737;28;20053;-28
2022/05/02 02:14:51;;;;;;;3.30;2.50;;;;;;;6.22;100.00;102243.75;5059803;28;20143;-28
2022/05/02 02:17:18;;;;;;;3.58;2.75;;;;;;;6.19;100.00;102249.75;5046051;28;20053;-28
2022/05/02 02:19:46;;;;;;;4.13;2.80;;;;;;;6.15;100.00;102247.72;5049407;28;20063;-28
2022/05/02 02:22:17;;;;;;;4.85;2.72;;;;;;;6.10;100.00;102256.75;5060859;28;20458;-28
2022/05/02 02:24:46;;;;;;;4.63;3.08;;;;;;;6.06;100.00;102257.44;5063632;28;20052;-28
2022/05/02 02:27:16;;;;;;;3.95;2.95;;;;;;;6.02;100.00;102254.28;5046949;28;20494;-28
2022/05/02 02:29:44;;;;;;;4.95;3.03;;;;;;;5.98;100.00;102253.09;5058348;28;20048;-27
2022/05/02 02:32:12;;;;;;;5.72;4.05;;;;;;;5.97;100.00;102256.09;5037904;28;20069;-29
2022/05/02 02:34:40;;;;;;;4.75;3.20;;;;;;;5.97;100.00;102261.63;5046670;28;20088;-28
2022/05/02 02:37:07;;;;;;;4.15;3.05;;;;;;;5.96;100.00;102248.84;5048746;28;20034;-27
2022/05/02 02:39:35;;;;;;;5.80;3.40;;;;;;;5.95;100.00;102255.47;5044620;28;20049;-27
2022/05/02 02:42:03;;;;;;;4.88;3.45;;;;;;;5.95;100.00;102252.72;5040356;28;20041;-27
2022/05/02 02:44:32;;;;;;;4.00;2.90;;;;;;;5.93;100.00;102257.63;5045050;28;20093;-27
2022/05/02 02:47:00;;;;;;;5.05;3.35;;;;;;;5.90;100.00;102256.16;5052847;28;20056;-26
2022/05/02 02:49:28;;;;;;;5.00;2.95;;;;;;;5.88;100.00;102261.94;5044963;28;20045;-28
2022/05/02 02:51:55;;;;;;;4.95;3.42;;;;;;;5.86;100.00;102255.75;5053739;28;20045;-28
2022/05/02 02:54:23;;;;;;;6.63;3.60;;;;;;;5.84;100.00;102245.97;5044337;28;20056;-27
2022/05/02 02:56:51;;;;;;;7.13;4.25;;;;;;;5.83;100.00;102249.84;5053403;28;20045;-28
2022/05/02 02:59:19;;;;;;;5.40;4.10;;;;;;;5.82;100.00;102243.44;5045487;28;20049;-27
2022/05/02 03:01:48;;;;;;;5.15;3.25;;;;;;;5.83;100.00;102234.06;5052450;28;20060;-28
2022/05/02 03:07:01;;;;;;;4.05;2.80;;;;;;;5.79;100.00;102238.41;5071096;28;20047;-29
2022/05/02 03:09:31;;;;;;;4.30;3.08;;;;;;;5.78;100.00;102233.94;5071746;28;20147;-28
2022/05/02 03:11:59;;;;;;;5.47;3.90;;;;;;;5.78;100.00;102246.94;5071771;28;20437;-29
2022/05/02 03:14:27;;;;;;;4.85;3.33;;;;;;;5.78;100.00;102235.88;5047361;28;20045;-28
2022/05/02 03:16:56;;;;;;;4.20;3.20;;;;;;;5.79;100.00;102232.00;5041063;28;20111;-28
2022/05/02 03:19:23;;;;;;;5.90;3.95;;;;;;;5.77;100.00;102231.41;5056788;28;20052;-28
2022/05/02 03:21:51;;;;;;;5.05;3.25;;;;;;;5.76;100.00;102236.09;5053068;28;20049;-28
2022/05/02 03:24:19;;;;;;;5.47;3.58;;;;;;;5.74;100.00;102232.72;5058184;28;20056;-30
2022/05/02 03:26:46;;;;;;;4.28;3.50;;;;;;;5.72;100.00;102226.56;5047588;28;20040;-28
2022/05/02 03:29:14;;;;;;;5.05;3.50;;;;;;;5.71;100.00;102226.78;5044548;28;20474;-28
2022/05/02 03:31:42;;;;;;;5.40;4.57;;;;;;;5.69;100.00;102221.47;5045785;28;20036;-28
2022/05/02 03:34:11;;;;;;;5.43;3.38;;;;;;;5.67;100.00;102217.25;5046164;28;20053;-28
2022/05/02 03:36:39;;;;;;;6.15;4.50;;;;;;;5.64;100.00;102220.47;5058192;28;20057;-33
2022/05/02 03:39:07;;;;;;;6.85;4.25;;;;;;;5.62;100.00;102220.72;5052315;28;20045;-28
2022/05/02 03:41:35;;;;;;;3.50;2.47;;;;;;;5.59;100.00;102215.66;5057967;28;20048;-28
2022/05/02 03:44:02;;;;;;;4.82;3.42;;;;;;;5.57;100.00;102220.59;5048963;28;20482;-28
2022/05/02 03:46:30;;;;;;;4.82;3.20;;;;;;;5.54;100.00;102221.03;5057554;28;20048;-29
2022/05/02 03:49:00;;;;;;;5.13;3.15;;;;;;;5.51;100.00;102214.03;5050387;28;20041;-28
2022/05/02 03:51:29;;;;;;;4.47;2.35;;;;;;;5.48;100.00;102214.50;5061174;28;20056;-29
2022/05/02 03:53:57;;;;;;;4.13;3.17;;;;;;;5.47;100.00;102214.75;5052850;28;20049;-32
2022/05/02 03:56:25;;;;;;;4.38;3.20;;;;;;;5.44;100.00;102215.19;5060991;28;20388;-28
2022/05/02 03:58:52;;;;;;;4.88;3.03;;;;;;;5.40;100.00;102213.97;5052802;28;20069;-28
2022/05/02 04:01:20;;;;;;;5.10;3.08;;;;;;;5.36;100.00;102221.06;5061058;28;20418;-28
2022/05/02 04:03:48;;;;;;;3.42;2.22;;;;;;;5.33;100.00;102229.81;5053194;28;20073;-28
2022/05/02 04:06:16;;;;;;;4.65;3.55;;;;;;;5.31;100.00;102226.44;5060611;28;20049;-28
2022/05/02 04:08:46;;;;;;;5.85;3.97;;;;;;;5.29;100.00;102226.66;5057612;28;20052;-27
2022/05/02 04:11:13;;;;;;;4.97;3.75;;;;;;;5.28;100.00;102226.91;5059181;28;20129;-27
2022/05/02 04:13:41;;;;;;;4.20;2.95;;;;;;;5.27;100.00;102236.28;5061102;28;20119;-27
2022/05/02 04:16:09;;;;;;;3.70;2.60;;;;;;;5.27;100.00;102239.03;5059847;28;20130;-27
2022/05/02 04:18:37;;;;;;;5.47;3.72;;;;;;;5.28;100.00;102224.13;5056048;28;20088;-27
2022/05/02 04:21:04;;;;;;;6.20;3.30;;;;;;;5.27;100.00;102239.03;5059422;28;20053;-28
2022/05/02 04:23:34;;;;;;;4.10;3.13;;;;;;;5.27;100.00;102233.50;5059835;28;20133;-28
2022/05/02 04:26:03;;;;;;;4.22;3.10;;;;;;;5.28;100.00;102235.19;5058574;28;20476;-28
2022/05/02 04:28:31;;;;;;;5.10;3.33;;;;;;;5.27;100.00;102236.28;5059366;28;20071;-28
2022/05/02 04:30:58;;;;;;;5.13;3.25;;;;;;;5.29;100.00;102240.50;5056765;28;20131;-28
2022/05/02 04:33:26;;;;;;;6.07;3.38;;;;;;;5.30;100.00;102236.66;5059599;28;20048;-27
2022/05/02 04:35:54;;;;;;;4.30;3.20;;;;;;;5.32;100.00;102248.34;5052761;28;20041;-27
2022/05/02 04:38:22;;;;;;;4.57;2.95;;;;;;;5.33;100.00;102241.75;5059526;28;20048;-28
2022/05/02 04:40:49;;;;;;;6.85;3.75;;;;;;;5.34;100.00;102237.06;5052169;28;20544;-27
2022/05/02 04:43:18;;;;;;;4.28;3.10;;;;;;;5.36;100.00;102238.50;5049236;28;20058;-27
2022/05/02 04:45:46;;;;;;;6.90;3.90;;;;;;;5.39;100.00;102237.22;5051100;28;20045;-28
2022/05/02 04:48:14;;;;;;;5.03;3.15;;;;;;;5.41;100.00;102235.03;5060011;28;20041;-27
2022/05/02 04:50:42;;;;;;;6.32;3.60;;;;;;;5.43;100.00;102238.41;5051809;28;20053;-28
2022/05/02 04:53:09;;;;;;;4.80;3.30;;;;;;;5.45;100.00;102233.50;5059566;28;20053;-28
2022/05/02 04:55:37;;;;;;;4.20;3.20;;;;;;;5.47;100.00;102242.41;5051791;28;20494;-28
2022/05/02 04:58:05;;;;;;;4.95;3.40;;;;;;;5.50;100.00;102233.66;5059928;28;20052;-27
2022/05/02 05:00:34;;;;;;;3.80;2.60;;;;;;;5.53;100.00;102234.03;5053687;28;20055;-27
2022/05/02 05:03:04;;;;;;;5.60;2.85;;;;;;;5.58;100.00;102238.88;5066057;28;20052;-28
2022/05/02 05:05:33;;;;;;;4.72;3.30;;;;;;;5.62;100.00;102236.47;5043223;28;20464;-28
2022/05/02 05:08:01;;;;;;;4.78;3.25;;;;;;;5.66;100.00;102238.56;5057728;28;20053;-27
2022/05/02 05:10:29;;;;;;;5.78;3.45;;;;;;;5.72;100.00;102237.63;5055871;28;20046;-29
2022/05/02 05:13:05;;;;;;;5.45;3.78;;;;;;;5.80;100.00;102241.97;5061000;28;20059;-29
2022/05/02 05:18:46;;;;;;;6.28;4.70;;;;;;;5.93;100.00;102233.53;5057616;28;20036;-27
2022/05/02 05:21:26;;;;;;;5.40;3.90;;;;;;;6.02;100.00;102234.88;5050525;28;20132;-27
2022/05/02 05:24:24;;;;;;;6.32;4.85;;;;;;;6.13;100.00;102233.25;5063402;28;20049;-29
2022/05/02 05:27:03;;;;;;;5.80;3.92;;;;;;;6.21;100.00;102228.19;5054875;28;20044;-26
2022/05/02 05:29:38;;;;;;;6.47;4.18;;;;;;;6.32;100.00;102223.78;5045355;28;20055;-27
2022/05/02 05:32:23;;;;;;;8.38;4.68;;;;;;;6.43;100.00;102225.72;5054179;28;20055;-27
2022/05/02 05:35:03;;;;;;;6.35;4.28;;;;;;;6.55;100.00;102232.16;5045078;28;20403;-27
2022/05/02 05:37:48;;;;;;;6.28;4.20;;;;;;;6.67;100.00;102232.16;5054391;28;20537;-28
2022/05/02 05:40:24;;;;;;;8.38;4.68;;;;;;;6.79;100.00;102234.97;5046031;28;20049;-28
2022/05/02 05:43:03;;;;;;;6.07;4.20;;;;;;;6.92;100.00;102234.72;5052848;28;20443;-28
2022/05/02 05:45:48;;;;;;;9.38;5.68;;;;;;;7.05;100.00;102237.22;5046095;28;20049;-29
2022/05/02 05:48:24;;;;;;;5.65;4.32;;;;;;;7.17;100.00;102235.31;5040207;28;20506;-28
2022/05/02 05:51:04;;;;;;;8.75;5.40;;;;;;;7.30;100.00;102233.34;5044820;28;20589;-29
2022/05/02 05:53:44;;;;;;;6.88;4.55;;;;;;;7.42;100.00;102229.44;5061455;28;20067;-28
2022/05/02 05:56:24;;;;;;;7.65;5.80;;;;;;;7.52;100.00;102228.84;5056731;28;20051;-28
2022/05/02 05:59:04;;;;;;;9.50;6.60;;;;;;;7.65;100.00;102227.69;5053559;28;20056;-28
2022/05/02 06:01:54;;;;;;;8.90;5.80;;;;;;;7.77;100.00;102234.09;5044395;28;20136;-28
2022/05/02 06:04:26;;;;;;;9.98;6.63;;;;;;;7.87;100.00;102235.13;5044422;28;20140;-29
2022/05/02 06:06:54;;;;;;;8.65;5.70;;;;;;;7.98;100.00;102230.63;5046080;28;20674;-28
2022/05/02 06:09:24;;;;;;;9.23;6.80;;;;;;;8.11;100.00;102232.25;5043253;28;20049;-28
2022/05/02 06:11:55;;;;;;;8.70;6.05;;;;;;;8.23;100.00;102230.22;5044754;28;20144;-27
2022/05/02 06:14:28;;;;;;;11.32;7.07;;;;;;;8.38;100.00;102236.13;5057933;28;20064;-27
2022/05/02 06:19:49;;;;;;;8.90;6.50;;;;;;;8.68;100.00;102234.94;5055872;28;20049;-27
2022/05/02 06:22:18;;;;;;;8.05;5.97;;;;;;;8.81;100.00;102237.38;5055590;28;20044;-27
2022/05/02 06:24:47;;;;;;;10.00;6.57;;;;;;;8.99;100.00;102235.16;5055282;28;20048;-28
2022/05/02 06:27:15;;;;;;;7.75;5.03;;;;;;;9.28;100.00;102235.88;5036867;28;20084;-28
2022/05/02 06:29:43;;;;;;;8.05;5.32;;;;;;;9.64;100.00;102234.41;5050613;28;20085;-31
2022/05/02 06:32:12;;;;;;;7.22;4.63;;;;;;;10.13;100.00;102230.81;5042872;28;20065;-28
2022/05/02 06:34:41;;;;;;;8.77;5.60;;;;;;;10.73;100.00;102230.56;5030746;28;20069;-26
2022/05/02 06:37:36;;;;;;;7.57;5.22;;;;;;;11.26;100.00;102234.28;5030475;28;20495;-27
2022/05/02 06:40:11;;;;;;;7.15;5.45;;;;;;;11.82;100.00;102237.38;5031139;28;20052;-27
2022/05/02 06:42:45;;;;;;;7.95;5.35;;;;;;;12.35;100.00;102233.34;5054579;28;20059;-27
2022/05/02 06:45:30;;;;;;;8.38;5.75;;;;;;;12.96;100.00;102237.00;5038572;28;20057;-29
2022/05/02 06:48:28;;;;;;;5.90;4.72;;;;;;;13.53;100.00;102232.13;5044818;28;20141;-28
2022/05/02 06:51:01;;;;;;;5.72;4.22;;;;;;;14.20;100.00;102234.31;5045227;28;20053;-27
2022/05/02 06:54:03;;;;;;;6.40;4.18;;;;;;;14.91;95.63;102232.97;5045294;28;20045;-28
2022/05/02 06:56:42;;;;;;;6.07;3.15;;;;;;;15.48;90.32;102226.47;5055221;28;20132;-29
2022/05/02 06:59:23;;;;;;;5.03;3.35;;;;;;;16.11;85.49;102229.91;5036726;28;20049;-27
2022/05/02 07:01:53;;;;;;;5.75;3.35;;;;;;;16.73;80.99;102238.31;5048775;28;20052;-29
2022/05/02 07:04:33;;;;;;;5.05;3.00;;;;;;;17.34;76.55;102235.22;5054920;28;20049;-28
2022/05/02 07:07:14;;;;;;;4.65;2.78;;;;;;;17.97;72.51;102228.03;5051224;28;20049;-33
2022/05/02 07:09:46;;;;;;;5.00;3.00;;;;;;;18.54;68.36;102229.25;5040136;28;20497;-30
2022/05/02 07:12:18;;;;;;;4.25;2.97;;;;;;;19.12;65.02;102234.03;5055907;28;20049;-28
2022/05/02 07:15:03;;;;;;;6.32;3.20;;;;;;;19.45;60.88;102226.88;5047244;28;20080;-28
2022/05/02 07:17:45;;;;;;;5.20;2.65;;;;;;;19.81;58.59;102229.53;5055092;28;20119;-28
2022/05/02 07:20:19;;;;;;;4.28;2.75;;;;;;;20.13;57.99;102227.44;5039672;28;20048;-28
2022/05/02 07:23:04;;;;;;;3.38;2.42;;;;;;;20.59;56.63;102232.50;5057355;28;20041;-29
2022/05/02 07:25:36;;;;;;;5.05;3.10;;;;;;;20.98;54.08;102232.28;5040564;28;20055;-30
2022/05/02 07:28:09;;;;;;;;;;;;;;;21.31;48.15;102234.59;5042782;28;20049;-28
2022/05/02 07:30:39;;;;;;;6.20;3.20;;;;;;;21.72;51.80;102228.25;5061348;28;19924;-29
2022/05/02 07:33:10;;;;;;;3.88;3.08;;;;;;;22.12;49.44;102227.88;5060444;28;20503;-29
2022/05/02 07:35:39;;;;;;;4.43;2.95;;;;;;;22.26;47.97;102228.44;5057847;28;20056;-30
2022/05/02 07:38:08;;;;;;;3.33;2.25;;;;;;;22.60;47.12;102221.63;5060047;28;20044;-28
2022/05/02 07:41:22;;;;;;;5.10;2.67;;;;;;;22.96;45.72;102221.00;5059160;28;20045;-29
2022/05/02 07:43:28;;;;;;;4.93;2.97;;;;;;;23.19;43.93;102222.25;5059451;28;20040;-27
2022/05/02 07:45:57;;;;;;;3.33;2.30;;;;;;;23.38;42.86;102222.53;5051205;28;20053;-27
2022/05/02 07:48:26;;;;;;;3.83;2.30;;;;;;;23.62;42.22;102221.75;5048914;28;20049;-28
2022/05/02 07:50:57;;;;;;;4.55;2.42;;;;;;;23.89;40.74;102222.25;5051012;28;20033;-28
2022/05/02 07:53:26;;;;;;;3.50;2.22;;;;;;;24.01;39.69;102225.91;5051656;28;20049;-29
2022/05/02 07:55:56;;;;;;;5.05;2.72;;;;;;;24.16;39.72;102227.22;5058586;28;20056;-28
2022/05/02 07:58:26;;;;;;;3.90;2.45;;;;;;;24.44;38.69;102233.00;5048475;28;20047;-28
2022/05/02 08:00:54;;;;;;;5.13;2.83;;;;;;;24.53;38.45;102224.31;5051884;28;20481;-28
2022/05/02 08:03:24;;;;;;;3.53;2.38;;;;;;;24.62;38.15;102230.69;5048099;28;20053;-28
2022/05/02 08:05:59;;;;;;;5.63;2.20;;;;;;;24.89;38.14;102229.03;5048402;28;20048;-28
2022/05/02 08:08:35;;;;;;;4.07;2.58;;;;;;;25.17;36.77;102223.34;5049255;28;20506;-35
2022/05/02 08:11:09;;;;;;;4.35;2.40;;;;;;;25.46;36.22;102230.63;5059240;28;20041;-32
2022/05/02 08:13:44;;;;;;;4.20;2.67;;;;;;;25.67;35.08;102226.34;5041455;28;20049;-33
2022/05/02 08:16:20;;;;;;;3.33;2.03;;;;;;;25.80;36.11;102229.09;5048530;28;20040;-28
2022/05/02 08:19:14;;;;;;;4.13;2.50;;;;;;;26.04;34.01;102228.88;5048855;28;20069;-32
2022/05/02 08:21:44;;;;;;;4.43;2.30;;;;;;;26.08;35.33;102226.94;5058693;28;20052;-28
2022/05/02 08:27:40;;;;;;;5.83;2.13;;;;;;;26.46;33.45;102233.97;5051778;28;20044;-27
2022/05/02 08:30:09;;;;;;;3.75;2.10;;;;;;;26.62;33.76;102243.31;5041065;28;20041;-29
2022/05/02 08:32:43;;;;;;;3.50;2.58;;;;;;;26.65;32.59;102237.69;5055793;28;20059;-29
2022/05/02 08:35:14;;;;;;;4.68;2.10;;;;;;;26.77;33.09;102245.31;5058437;28;20435;-29
2022/05/02 08:38:13;;;;;;;3.78;1.83;;;;;;;26.96;30.83;102233.06;5055691;28;20077;-35
2022/05/02 08:41:24;;;;;;;3.00;1.98;;;;;;;26.92;29.89;102237.84;5042942;28;20052;-29
2022/05/02 08:44:29;;;;;;;3.33;2.00;;;;;;;27.01;30.56;102238.44;5049765;28;20493;-31
2022/05/02 08:47:33;;;;;;;3.15;1.90;;;;;;;27.24;29.58;102230.72;5041838;28;20057;-30
2022/05/02 08:50:10;;;;;;;3.55;1.70;;;;;;;27.38;30.23;102233.03;5046288;28;20140;-29
2022/05/02 08:53:09;;;;;;;3.92;2.00;;;;;;;27.61;28.64;102231.03;5059302;28;20411;-32
2022/05/02 08:55:49;;;;;;;4.53;1.80;;;;;;;27.72;29.00;102232.06;5054010;28;20044;-32
2022/05/02 08:58:57;;;;;;;3.90;1.85;;;;;;;27.66;27.77;102224.97;5040255;28;20057;-29
2022/05/02 09:02:00;;;;;;;2.80;1.65;;;;;;;27.55;27.67;102237.44;5045422;28;20050;-28
2022/05/02 09:05:06;;;;;;;3.85;1.85;;;;;;;27.56;26.73;102228.47;5051716;28;20044;-33
2022/05/02 09:08:22;;;;;;;2.80;1.70;;;;;;;27.51;26.77;102230.81;5058416;28;20122;-29
2022/05/02 09:11:31;;;;;;;2.20;1.40;;;;;;;27.58;28.01;102236.72;4991464;28;20046;-30
2022/05/02 09:14:43;;;;;;;3.72;2.00;;;;;;;27.67;27.08;102240.97;5047945;28;20061;-33
2022/05/02 09:17:46;;;;;;;3.05;1.65;;;;;;;27.69;27.14;102235.69;5049507;28;20106;-29
2022/05/02 09:20:41;;;;;;;3.28;1.83;;;;;;;27.80;27.63;102232.97;5050454;28;20497;-34
2022/05/02 09:23:48;;;;;;;2.53;1.70;;;;;;;27.95;25.61;102225.44;5060727;28;20548;-40
2022/05/02 09:26:47;;;;;;;2.95;1.50;;;;;;;27.92;26.80;102229.09;5047193;28;20497;-29
2022/05/02 09:29:59;;;;;;;3.50;1.70;;;;;;;27.96;24.97;102218.50;5063124;28;20052;-30
2022/05/02 09:32:44;;;;;;;3.65;1.73;;;;;;;27.76;27.44;102215.72;5044671;28;20045;-30
2022/05/02 09:35:18;;;;;;;2.05;1.13;;;;;;;27.87;26.93;102215.88;5050261;28;20055;-32
2022/05/02 09:37:56;;;;;;;2.33;1.00;;;;;;;28.08;25.18;102216.22;5058977;28;20052;-34
2022/05/02 09:40:34;;;;;;;1.80;0.90;;;;;;;28.13;24.95;102221.66;5050172;28;20059;-29
2022/05/02 09:43:21;;;;;;;3.78;1.00;;;;;;;28.11;23.32;102215.47;5058945;28;20394;-29
2022/05/02 09:52:03;;;;;;;2.00;1.10;;;;;;;27.82;23.83;102218.25;5042466;28;20046;-35
2022/05/02 09:57:33;;;;;;;3.17;1.45;;;;;;;27.87;24.53;102212.19;5060910;28;20096;-29
2022/05/02 10:02:52;;;;;;;1.77;1.00;;;;;;;27.97;23.92;102203.78;5051850;28;20081;-32
2022/05/02 10:05:27;;;;;;;2.05;1.08;;;;;;;27.97;22.93;102203.78;5049591;28;20041;-39
2022/05/02 10:08:02;;;;;;;1.30;0.77;;;;;;;28.02;23.16;102205.47;5051306;28;20486;-30
2022/05/02 10:10:39;;;;;;;1.60;1.00;;;;;;;28.02;22.44;102200.53;5048645;28;20450;-40
2022/05/02 10:13:20;;;;;;;2.08;0.88;;;;;;;27.86;22.70;102199.88;5044534;28;20052;-39
2022/05/02 10:15:59;;;;;;;2.00;1.00;;;;;;;27.92;22.37;102191.78;5056385;28;20091;-33
2022/05/02 10:18:57;;;;;;;1.48;0.70;;;;;;;28.09;21.86;102202.72;5055449;28;20520;-30
2022/05/02 10:21:42;;;;;;;1.83;0.73;;;;;;;28.25;22.44;102193.94;5041230;28;20049;-28
2022/05/02 10:24:28;;;;;;;1.27;0.57;;;;;;;28.25;21.23;102193.94;5047661;28;20045;-31
2022/05/02 10:26:57;;;;;;;1.30;0.60;;;;;;;28.26;22.03;102205.03;5063918;28;20090;-36
2022/05/02 10:29:41;;;;;;;1.58;0.80;;;;;;;28.32;21.68;102196.91;5045709;28;20093;-30
2022/05/02 10:32:25;;;;;;;1.88;0.70;;;;;;;28.37;21.41;102200.28;5053362;28;20049;-33
2022/05/02 10:34:55;;;;;;;1.00;0.55;;;;;;;28.36;21.70;102186.31;5045608;28;20463;-32
2022/05/02 10:37:31;;;;;;;1.40;0.50;;;;;;;28.33;19.79;102189.97;5053034;28;20045;-31
2022/05/02 10:40:08;;;;;;;1.10;0.43;;;;;;;27.96;21.06;102199.25;5045533;28;20045;-37
2022/05/02 10:42:36;;;;;;;1.30;0.50;;;;;;;27.97;20.74;102195.16;5053658;28;20103;-34
2022/05/02 10:45:06;;;;;;;0.95;0.50;;;;;;;27.47;20.50;102195.50;5044595;28;20053;-31
2022/05/02 10:47:41;;;;;;;1.70;0.60;;;;;;;26.77;21.35;102190.88;5053503;28;20124;-29
2022/05/02 10:50:20;;;;;;;2.25;0.90;;;;;;;26.71;21.46;102196.09;5045433;28;20057;-29
2022/05/02 10:53:09;;;;;;;2.15;0.98;;;;;;;26.75;21.79;102191.28;5052502;28;20053;-30
2022/05/02 10:55:39;;;;;;;1.30;0.52;;;;;;;26.67;21.71;102191.47;5041864;28;20406;-34
2022/05/02 10:58:11;;;;;;;2.00;0.70;;;;;;;26.39;22.19;102186.78;5048782;28;20131;-32
2022/05/02 11:00:50;;;;;;;2.88;0.90;;;;;;;26.40;22.01;102185.59;5057965;28;20041;-35
2022/05/02 11:03:46;;;;;;;1.90;0.80;;;;;;;26.43;22.06;102181.97;5049870;28;20131;-28
2022/05/02 11:06:44;;;;;;;1.88;0.68;;;;;;;26.51;22.10;102187.88;5056927;28;20096;-35
2022/05/02 11:09:18;;;;;;;2.08;0.70;;;;;;;26.68;23.28;102193.16;5039544;28;20056;-29
2022/05/02 11:11:48;;;;;;;2.30;1.20;;;;;;;26.93;23.22;102176.47;5030924;28;20045;-30
2022/05/02 11:14:28;;;;;;;1.60;0.70;;;;;;;27.00;22.59;102168.03;5031482;28;20049;-36
2022/05/02 11:17:00;;;;;;;1.45;0.50;;;;;;;27.12;22.74;102172.75;5031953;28;20295;-37
2022/05/02 11:22:26;;;;;;;1.48;0.77;;;;;;;27.43;23.11;102172.50;5031936;28;20049;-27
2022/05/02 11:25:06;;;;;;;1.75;0.77;;;;;;;27.62;22.60;102169.56;5032014;28;20395;-30
2022/05/02 11:27:51;;;;;;;2.35;0.80;;;;;;;27.52;21.79;102169.38;5031094;28;20053;-36
2022/05/02 11:30:23;;;;;;;1.77;0.90;;;;;;;27.20;22.61;102171.66;5031605;28;20049;-26
2022/05/02 11:33:12;;;;;;;2.45;1.13;;;;;;;27.27;23.24;102166.06;5031649;28;20419;-24
2022/05/02 11:35:46;;;;;;;2.35;0.60;;;;;;;27.32;23.42;102166.59;5031866;28;20064;-24
2022/05/02 11:38:29;;;;;;;1.50;0.63;;;;;;;27.66;22.83;102170.47;5028739;28;20407;-24
2022/05/02 11:41:06;;;;;;;2.22;0.70;;;;;;;27.76;22.92;102158.34;5030080;28;20054;-26
2022/05/02 11:43:36;;;;;;;1.40;0.65;;;;;;;27.76;23.15;102157.53;5028628;28;20042;-33
2022/05/02 11:46:15;;;;;;;1.60;0.87;;;;;;;27.75;23.11;102150.97;5030591;28;20052;-29
2022/05/02 11:49:04;;;;;;;1.70;1.00;;;;;;;27.63;20.37;102153.19;5029587;28;20505;-28
2022/05/02 11:51:43;;;;;;;1.67;0.85;;;;;;;27.43;23.12;102153.25;5030644;28;20156;-33
2022/05/02 11:54:23;;;;;;;1.70;0.60;;;;;;;27.51;22.57;102156.25;5029727;28;20055;-30
2022/05/02 11:56:56;;;;;;;1.83;0.90;;;;;;;27.60;22.49;102159.69;5030505;28;20434;-26
2022/05/02 11:59:28;;;;;;;2.13;0.70;;;;;;;27.71;22.91;102158.69;5030399;28;20053;-30
2022/05/02 12:02:04;;;;;;;1.67;0.73;;;;;;;27.74;22.97;102151.34;5029529;28;20048;-26
2022/05/02 12:04:38;;;;;;;1.95;0.80;;;;;;;27.78;23.53;102155.06;5030488;28;20053;-32
2022/05/02 12:07:14;;;;;;;2.15;0.90;;;;;;;27.71;24.19;102152.94;5030422;28;20049;-23
2022/05/02 12:09:44;;;;;;;2.00;0.93;;;;;;;27.50;25.15;102151.72;5029617;28;20100;-25
2022/05/02 12:12:14;;;;;;;1.25;0.70;;;;;;;27.50;25.05;102160.34;5034132;28;20045;-25
2022/05/02 12:14:42;;;;;;;1.30;0.60;;;;;;;27.54;24.67;102162.06;5033775;28;20056;-25
2022/05/02 12:17:12;;;;;;;1.65;0.70;;;;;;;27.55;24.74;102157.16;5032971;28;20042;-26
2022/05/02 12:19:41;;;;;;;2.20;1.00;;;;;;;27.48;25.23;102151.28;5033740;28;20042;-30
2022/05/02 12:22:14;;;;;;;2.60;1.00;;;;;;;27.34;25.41;102158.44;5032851;28;20061;-29
2022/05/02 12:24:45;;;;;;;2.25;1.00;;;;;;;27.27;25.99;102154.59;5035084;28;20045;-33
2022/05/02 12:27:16;;;;;;;1.50;0.88;;;;;;;27.17;26.34;102150.34;5034689;28;20045;-30